Time;durP1;ratioP1;P1;durP2;ratioP2;P2;SDS_P1;SDS_P2;PMS_P1;PMS_P2;Temp;Humidity;BMP_temperature;BMP_pressure;BME280_temperature;BME280_humidity;BME280_pressure;Samples;Min_cycle;Max_cycle;Signal;HPM_P1;HPM_P2
2024/04/05 00:01:50;;;;;;;2.60;1.10;;;;;;;2.52;100.00;100024.00;105787;1257;62154;-58
2024/04/05 00:04:16;;;;;;;1.70;0.90;;;;;;;2.50;100.00;100025.08;105863;1261;61862;-57
2024/04/05 00:06:43;;;;;;;2.30;0.90;;;;;;;2.56;100.00;100026.43;105923;1257;74899;-58
2024/04/05 00:09:10;;;;;;;1.40;0.80;;;;;;;2.67;100.00;100026.84;106017;1257;67397;-57
2024/04/05 00:11:38;;;;;;;2.00;0.90;;;;;;;2.80;100.00;100027.75;105613;1260;71815;-56
2024/04/05 00:14:05;;;;;;;9.40;1.20;;;;;;;2.90;100.00;100029.90;105926;1262;62023;-57
2024/04/05 00:16:31;;;;;;;1.80;1.00;;;;;;;2.97;100.00;100024.86;105795;1259;61361;-57
2024/04/05 00:18:58;;;;;;;2.60;1.70;;;;;;;3.07;100.00;100031.46;105785;1262;74736;-57
2024/04/05 00:21:25;;;;;;;3.20;1.60;;;;;;;3.16;100.00;100035.42;105775;1262;67347;-57
2024/04/05 00:23:51;;;;;;;4.10;1.40;;;;;;;3.24;100.00;100034.42;105894;1262;73375;-57
2024/04/05 00:26:18;;;;;;;1.30;1.20;;;;;;;3.27;100.00;100037.20;106206;1258;61234;-58
2024/04/05 00:28:45;;;;;;;2.50;1.30;;;;;;;3.28;100.00;100035.96;105786;1277;61346;-57
2024/04/05 00:31:11;;;;;;;2.30;1.10;;;;;;;3.27;100.00;100032.95;105776;1259;75211;-57
2024/04/05 00:33:38;;;;;;;3.30;1.50;;;;;;;3.25;100.00;100038.83;105748;1262;67389;-57
2024/04/05 00:36:05;;;;;;;2.00;1.40;;;;;;;3.24;100.00;100041.67;105715;1258;73219;-57
2024/04/05 00:38:32;;;;;;;1.80;1.00;;;;;;;3.22;100.00;100039.08;105787;1260;61194;-57
2024/04/05 00:40:59;;;;;;;2.40;1.00;;;;;;;3.20;100.00;100038.73;105677;1257;62291;-57
2024/04/05 00:43:26;;;;;;;2.40;1.10;;;;;;;3.17;100.00;100041.42;105784;1262;75068;-57
2024/04/05 00:45:52;;;;;;;4.00;1.40;;;;;;;3.14;100.00;100043.08;105797;1262;67621;-57
2024/04/05 00:48:20;;;;;;;3.90;1.50;;;;;;;3.12;100.00;100038.85;105607;1265;72281;-57
2024/04/05 00:50:48;;;;;;;1.70;1.00;;;;;;;3.15;100.00;100037.75;106012;1265;61260;-57
2024/04/05 00:53:19;;;;;;;1.60;1.20;;;;;;;3.16;100.00;100037.71;105923;1263;61349;-58
2024/04/05 00:55:47;;;;;;;1.50;0.90;;;;;;;3.16;100.00;100037.54;105876;1262;75701;-58
2024/04/05 00:58:14;;;;;;;2.20;1.00;;;;;;;3.15;100.00;100041.82;105911;1278;65738;-56
2024/04/05 01:00:41;;;;;;;1.90;1.20;;;;;;;3.17;100.00;100042.48;105713;1263;73144;-57
2024/04/05 01:03:07;;;;;;;1.90;1.10;;;;;;;3.18;100.00;100045.32;105658;1263;62130;-57
2024/04/05 01:05:34;;;;;;;1.70;0.90;;;;;;;3.18;100.00;100043.89;105737;1259;61243;-57
2024/04/05 01:08:01;;;;;;;1.20;1.00;;;;;;;3.17;100.00;100046.05;105681;1269;74993;-56
2024/04/05 01:10:28;;;;;;;2.40;1.10;;;;;;;3.12;100.00;100046.11;105957;1262;66975;-56
2024/04/05 01:13:02;;;;;;;2.50;1.00;;;;;;;3.06;100.00;100043.70;105742;1259;72890;-57
2024/04/05 01:15:29;;;;;;;;;;;;;;;3.00;100.00;100042.17;105846;1265;61504;-57
2024/04/05 01:17:58;;;;;;;3.20;1.00;;;;;;;3.01;100.00;100046.77;105824;1265;61312;-57
2024/04/05 01:20:26;;;;;;;1.90;1.10;;;;;;;3.04;100.00;100048.52;106154;1262;74998;-57
2024/04/05 01:22:53;;;;;;;1.70;1.10;;;;;;;3.05;100.00;100047.29;106281;1264;67122;-57
2024/04/05 01:25:20;;;;;;;2.50;0.90;;;;;;;3.06;100.00;100049.92;108767;1259;71361;-57
2024/04/05 01:27:47;;;;;;;2.30;1.10;;;;;;;3.09;100.00;100055.55;106652;1262;62270;-57
2024/04/05 01:30:13;;;;;;;2.70;1.00;;;;;;;3.09;100.00;100051.30;105802;1260;60948;-56
2024/04/05 01:32:57;;;;;;;1.50;0.90;;;;;;;3.10;100.00;100049.51;105804;1265;75560;-57
2024/04/05 01:35:24;;;;;;;3.20;1.70;;;;;;;3.18;100.00;100046.04;107575;1259;68211;-57
2024/04/05 01:37:51;;;;;;;1.80;1.60;;;;;;;3.24;100.00;100046.29;108561;1259;72537;-57
2024/04/05 01:40:17;;;;;;;2.30;1.60;;;;;;;3.30;100.00;100044.44;106266;1262;61289;-56
2024/04/05 01:42:44;;;;;;;5.60;1.30;;;;;;;3.33;100.00;100046.51;105765;1260;61330;-57
2024/04/05 01:45:11;;;;;;;4.50;1.30;;;;;;;3.34;100.00;100052.00;105715;1262;75012;-57
2024/04/05 01:47:38;;;;;;;2.40;1.30;;;;;;;3.34;100.00;100058.39;105723;1262;66390;-57
2024/04/05 01:50:05;;;;;;;2.60;1.50;;;;;;;3.37;100.00;100057.81;105766;1262;72679;-57
2024/04/05 01:52:32;;;;;;;3.60;1.80;;;;;;;3.39;100.00;100056.73;108490;1258;59677;-57
2024/04/05 01:54:59;;;;;;;4.00;1.90;;;;;;;3.40;100.00;100060.10;106323;1260;61053;-57
2024/04/05 01:57:25;;;;;;;5.10;1.70;;;;;;;3.39;100.00;100062.95;105827;1270;74737;-57
2024/04/05 01:59:54;;;;;;;2.20;1.60;;;;;;;3.35;100.00;100066.89;105780;1262;67407;-57
2024/04/05 02:02:23;;;;;;;2.20;1.30;;;;;;;3.30;100.00;100068.20;106668;1260;71058;-57
2024/04/05 02:04:53;;;;;;;3.50;1.70;;;;;;;3.20;100.00;100071.71;105921;1258;61385;-57
2024/04/05 02:07:21;;;;;;;4.30;1.30;;;;;;;3.08;100.00;100072.95;108768;1261;60251;-58
2024/04/05 02:09:51;;;;;;;3.30;1.50;;;;;;;2.95;100.00;100073.81;108904;1257;74929;-58
2024/04/05 02:12:18;;;;;;;2.40;1.00;;;;;;;2.90;100.00;100076.70;108786;1257;65953;-58
2024/04/05 02:14:44;;;;;;;2.50;1.20;;;;;;;2.91;100.00;100078.99;106450;1262;72530;-57
2024/04/05 02:17:11;;;;;;;2.10;1.10;;;;;;;2.94;100.00;100073.11;105811;1262;61312;-55
2024/04/05 02:19:38;;;;;;;2.00;1.60;;;;;;;2.97;100.00;100070.41;105784;1258;60066;-56
2024/04/05 02:22:08;;;;;;;2.40;1.10;;;;;;;3.01;100.00;100074.45;105877;1258;74578;-57
2024/04/05 02:24:35;;;;;;;3.00;1.00;;;;;;;3.02;100.00;100078.87;106332;1262;67075;-56
2024/04/05 02:27:02;;;;;;;2.20;1.10;;;;;;;2.99;100.00;100081.38;105782;1262;72318;-57
2024/04/05 02:29:31;;;;;;;2.80;1.20;;;;;;;2.92;100.00;100087.67;105783;1262;61843;-57
2024/04/05 02:31:57;;;;;;;3.20;1.30;;;;;;;2.82;100.00;100088.50;105864;1260;61195;-57
2024/04/05 02:34:24;;;;;;;1.50;1.20;;;;;;;2.77;100.00;100087.69;105799;1257;74809;-57
2024/04/05 02:36:51;;;;;;;4.40;1.40;;;;;;;2.73;100.00;100091.45;105756;1276;66942;-57
2024/04/05 02:39:18;;;;;;;2.70;1.40;;;;;;;2.71;100.00;100096.80;105796;1258;73094;-57
2024/04/05 02:41:45;;;;;;;3.90;1.40;;;;;;;2.65;100.00;100099.52;106357;1262;61292;-57
2024/04/05 02:44:12;;;;;;;2.00;1.60;;;;;;;2.53;100.00;100101.77;105844;1257;61488;-57
2024/04/05 02:46:39;;;;;;;3.20;1.70;;;;;;;2.44;100.00;100099.56;105757;1265;75515;-57
2024/04/05 02:49:06;;;;;;;2.40;1.20;;;;;;;2.38;100.00;100098.37;106509;1257;66966;-57
2024/04/05 02:51:34;;;;;;;2.10;1.30;;;;;;;2.32;100.00;100100.19;106043;1262;74257;-60
2024/04/05 02:54:01;;;;;;;2.00;1.00;;;;;;;2.26;100.00;100101.48;106300;1260;61231;-58
2024/04/05 02:56:28;;;;;;;1.80;1.00;;;;;;;2.27;100.00;100104.67;106239;1262;61439;-57
2024/04/05 02:58:56;;;;;;;2.70;0.90;;;;;;;2.30;100.00;100104.48;105791;1261;73075;-57
2024/04/05 03:01:24;;;;;;;2.00;1.20;;;;;;;2.30;100.00;100108.73;105931;1260;66963;-57
2024/04/05 03:03:51;;;;;;;1.60;1.10;;;;;;;2.27;100.00;100112.81;105977;1263;72554;-57
2024/04/05 03:06:19;;;;;;;1.40;1.20;;;;;;;2.28;100.00;100109.80;105949;1262;61226;-57
2024/04/05 03:08:46;;;;;;;1.80;1.00;;;;;;;2.31;100.00;100107.64;106684;1261;61140;-57
2024/04/05 03:11:13;;;;;;;3.90;1.40;;;;;;;2.34;100.00;100101.96;105886;1262;74578;-57
2024/04/05 03:13:40;;;;;;;3.30;1.20;;;;;;;2.34;100.00;100097.70;105986;1262;66453;-57
2024/04/05 03:16:07;;;;;;;1.60;1.00;;;;;;;2.31;100.00;100099.67;105980;1260;73727;-57
2024/04/05 03:18:34;;;;;;;4.10;1.00;;;;;;;2.26;100.00;100103.27;105977;1260;60384;-57
2024/04/05 03:21:00;;;;;;;4.30;1.00;;;;;;;2.24;100.00;100094.06;105824;1260;62268;-57
2024/04/05 03:23:27;;;;;;;3.10;1.60;;;;;;;2.20;100.00;100096.23;105805;1264;74712;-57
2024/04/05 03:25:55;;;;;;;2.40;1.00;;;;;;;2.13;100.00;100096.48;105808;1261;68615;-57
2024/04/05 03:28:21;;;;;;;2.30;1.00;;;;;;;2.09;100.00;100095.81;106042;1262;73362;-57
2024/04/05 03:30:48;;;;;;;2.50;1.00;;;;;;;2.08;100.00;100106.97;105736;1262;61246;-57
2024/04/05 03:33:15;;;;;;;6.00;0.90;;;;;;;2.08;100.00;100110.50;105760;1262;61186;-56
2024/04/05 03:35:42;;;;;;;1.70;1.20;;;;;;;2.07;100.00;100112.10;105742;1263;74796;-57
2024/04/05 03:38:08;;;;;;;2.80;1.00;;;;;;;2.03;100.00;100114.10;105696;1263;65940;-57
2024/04/05 03:40:39;;;;;;;1.70;1.10;;;;;;;2.02;100.00;100119.76;105795;1260;72541;-57
2024/04/05 03:43:06;;;;;;;3.50;1.00;;;;;;;2.07;100.00;100123.25;106402;1262;61320;-56
2024/04/05 03:45:33;;;;;;;5.30;1.20;;;;;;;2.11;100.00;100123.06;106161;1260;61315;-57
2024/04/05 03:48:00;;;;;;;2.70;0.90;;;;;;;2.15;100.00;100127.09;105739;1265;75669;-56
2024/04/05 03:50:27;;;;;;;2.10;1.10;;;;;;;2.20;100.00;100122.27;105742;1265;67358;-56
2024/04/05 03:52:54;;;;;;;2.30;1.10;;;;;;;2.24;100.00;100124.53;105749;1259;72608;-56
2024/04/05 03:55:20;;;;;;;2.10;1.00;;;;;;;2.27;100.00;100125.75;106153;1262;62117;-56
2024/04/05 03:57:52;;;;;;;2.90;1.20;;;;;;;2.30;100.00;100131.73;105867;1259;59953;-57
2024/04/05 04:00:21;;;;;;;2.10;1.20;;;;;;;2.29;100.00;100136.36;105118;1263;951698;-57
2024/04/05 04:04:16;;;;;;;3.80;1.10;;;;;;;2.33;100.00;100135.06;102755;1297;600348;-55
2024/04/05 04:06:42;;;;;;;1.60;0.90;;;;;;;2.36;100.00;100131.16;106367;1270;60278;-55
2024/04/05 04:09:11;;;;;;;2.50;1.10;;;;;;;2.42;100.00;100135.17;105225;1268;59911;-54
2024/04/05 04:11:38;;;;;;;2.00;1.10;;;;;;;2.51;100.00;100131.02;105442;1270;73134;-55
2024/04/05 04:14:05;;;;;;;1.80;1.00;;;;;;;2.63;100.00;100130.36;105470;1266;66897;-52
2024/04/05 04:16:33;;;;;;;2.40;1.00;;;;;;;2.77;100.00;100130.39;105321;1269;73571;-53
2024/04/05 04:18:59;;;;;;;3.00;1.00;;;;;;;2.95;100.00;100135.85;105231;1269;247187;-54
2024/04/05 04:21:26;;;;;;;1.60;0.90;;;;;;;3.25;100.00;100136.20;105602;1263;59740;-54
2024/04/05 04:23:53;;;;;;;3.30;0.90;;;;;;;3.64;100.00;100139.77;105391;1264;72933;-55
2024/04/05 04:26:20;;;;;;;1.10;0.70;;;;;;;4.10;100.00;100138.34;105411;1268;68078;-54
2024/04/05 04:28:48;;;;;;;0.90;0.60;;;;;;;4.54;100.00;100140.63;105608;1267;72931;-53
2024/04/05 04:31:21;;;;;;;1.30;0.60;;;;;;;4.90;100.00;100144.77;105629;1276;60355;-53
2024/04/05 04:33:51;;;;;;;0.40;0.40;;;;;;;5.31;100.00;100148.40;105688;1267;60475;-54
2024/04/05 04:36:20;;;;;;;0.50;0.40;;;;;;;5.73;100.00;100153.72;105553;1263;74924;-54
2024/04/05 04:38:47;;;;;;;1.20;0.50;;;;;;;6.05;100.00;100156.56;107208;1264;67903;-54
2024/04/05 04:41:14;;;;;;;0.70;0.50;;;;;;;6.18;100.00;100163.40;105928;1264;73002;-58
2024/04/05 04:43:42;;;;;;;1.50;0.50;;;;;;;6.18;100.00;100168.75;105408;1269;60568;-54
2024/04/05 04:46:13;;;;;;;1.20;0.50;;;;;;;6.31;100.00;100170.73;105551;1269;61077;-57
2024/04/05 04:48:40;;;;;;;0.60;0.50;;;;;;;6.69;100.00;100169.44;108542;1263;75161;-54
2024/04/05 04:51:07;;;;;;;3.00;0.50;;;;;;;7.09;100.00;100167.45;108646;1261;66265;-57
2024/04/05 04:53:34;;;;;;;0.60;0.50;;;;;;;7.33;100.00;100167.67;106308;1261;71602;-54
2024/04/05 04:56:01;;;;;;;0.80;0.40;;;;;;;7.41;100.00;100169.03;105776;1264;60482;-52
2024/04/05 04:58:33;;;;;;;0.80;0.40;;;;;;;7.43;100.00;100168.10;105557;1263;60844;-54
2024/04/05 05:01:00;;;;;;;0.90;0.40;;;;;;;7.42;100.00;100175.08;108643;1260;73248;-55
2024/04/05 05:03:26;;;;;;;1.70;0.50;;;;;;;7.42;100.00;100177.59;108761;1260;67406;-52
2024/04/05 05:05:53;;;;;;;0.60;0.40;;;;;;;7.42;100.00;100175.79;108690;1261;72577;-53
2024/04/05 05:08:20;;;;;;;0.40;0.40;;;;;;;7.46;100.00;100176.77;108669;1260;59945;-53
2024/04/05 05:10:47;;;;;;;0.90;0.40;;;;;;;7.51;100.00;100182.48;108660;1260;59017;-53
2024/04/05 05:13:14;;;;;;;1.80;0.40;;;;;;;7.54;100.00;100181.33;108664;1261;73805;-53
2024/04/05 05:15:41;;;;;;;0.50;0.30;;;;;;;7.58;100.00;100180.14;108610;1263;67189;-55
2024/04/05 05:18:08;;;;;;;0.50;0.30;;;;;;;7.60;100.00;100184.02;109297;1253;72551;-55
2024/04/05 05:20:35;;;;;;;1.00;0.40;;;;;;;7.65;100.00;100181.94;109044;1253;58735;-54
2024/04/05 05:23:02;;;;;;;2.10;0.40;;;;;;;7.68;100.00;100185.38;109200;1254;59979;-54
2024/04/05 05:25:29;;;;;;;0.30;0.20;;;;;;;7.70;100.00;100188.91;109199;1254;72331;-55
2024/04/05 05:27:56;;;;;;;0.70;0.30;;;;;;;7.71;100.00;100188.70;109168;1253;66728;-54
2024/04/05 05:30:23;;;;;;;0.30;0.30;;;;;;;7.71;100.00;100191.56;109247;1254;71371;-54
2024/04/05 05:32:49;;;;;;;0.40;0.20;;;;;;;7.72;100.00;100189.58;109348;1254;59281;-55
2024/04/05 05:35:16;;;;;;;0.70;0.30;;;;;;;7.73;100.00;100193.98;109091;1254;58461;-54
2024/04/05 05:37:43;;;;;;;1.10;0.30;;;;;;;7.77;100.00;100196.57;108565;1256;75157;-53
2024/04/05 05:40:12;;;;;;;0.50;0.30;;;;;;;7.80;100.00;100197.20;106252;1267;67161;-53
2024/04/05 05:42:39;;;;;;;0.50;0.30;;;;;;;7.84;100.00;100198.33;106073;1257;72656;-52
2024/04/05 05:45:06;;;;;;;0.40;0.40;;;;;;;7.87;100.00;100196.62;106410;1254;63330;-53
2024/04/05 05:47:33;;;;;;;0.80;0.40;;;;;;;7.89;100.00;100195.30;106131;1258;60541;-52
2024/04/05 05:50:00;;;;;;;0.50;0.20;;;;;;;7.92;100.00;100197.16;106496;1254;73993;-57
2024/04/05 05:52:27;;;;;;;0.30;0.20;;;;;;;7.94;100.00;100194.25;106141;1257;66924;-51
2024/04/05 05:54:54;;;;;;;0.30;0.20;;;;;;;7.92;100.00;100191.80;106313;1253;72887;-52
2024/04/05 05:57:21;;;;;;;1.20;0.30;;;;;;;7.92;100.00;100195.39;106556;1254;60318;-54
2024/04/05 05:59:48;;;;;;;0.30;0.30;;;;;;;7.95;100.00;100195.83;106177;1257;60488;-54
2024/04/05 06:02:15;;;;;;;0.30;0.20;;;;;;;7.99;100.00;100198.73;106240;1257;74850;-51
2024/04/05 06:04:42;;;;;;;0.50;0.30;;;;;;;8.06;100.00;100200.33;106165;1257;65868;-53
2024/04/05 06:07:09;;;;;;;0.30;0.30;;;;;;;8.11;100.00;100194.64;106085;1254;72750;-53
2024/04/05 06:09:36;;;;;;;0.30;0.20;;;;;;;8.16;100.00;100197.31;106058;1258;60454;-53
2024/04/05 06:12:04;;;;;;;0.90;0.20;;;;;;;8.23;100.00;100199.95;106497;1254;60407;-54
2024/04/05 06:14:31;;;;;;;1.60;0.20;;;;;;;8.30;100.00;100204.56;106216;1260;74648;-54
2024/04/05 06:16:58;;;;;;;0.30;0.30;;;;;;;8.34;100.00;100207.66;106211;1257;67611;-55
2024/04/05 06:19:25;;;;;;;0.40;0.30;;;;;;;8.40;100.00;100203.41;106097;1253;72772;-54
2024/04/05 06:21:53;;;;;;;0.40;0.30;;;;;;;8.45;100.00;100205.02;106155;1257;60932;-54
2024/04/05 06:24:20;;;;;;;0.30;0.20;;;;;;;8.52;100.00;100201.02;106180;1254;60540;-51
2024/04/05 06:26:47;;;;;;;1.00;0.30;;;;;;;8.60;100.00;100194.51;106496;1252;74136;-53
2024/04/05 06:29:14;;;;;;;0.70;0.20;;;;;;;8.66;100.00;100197.35;107295;1257;66472;-52
2024/04/05 06:31:41;;;;;;;0.90;0.30;;;;;;;8.69;100.00;100196.70;106330;1258;72673;-53
2024/04/05 06:34:08;;;;;;;0.40;0.30;;;;;;;8.73;100.00;100194.77;106527;1256;60496;-53
2024/04/05 06:36:35;;;;;;;0.30;0.20;;;;;;;8.79;100.00;100195.85;106016;1258;60520;-52
2024/04/05 06:39:04;;;;;;;0.30;0.20;;;;;;;8.83;100.00;100199.27;105992;1256;74563;-53
2024/04/05 06:41:31;;;;;;;0.40;0.30;;;;;;;8.89;100.00;100204.62;106171;1256;67263;-53
2024/04/05 06:43:59;;;;;;;0.60;0.20;;;;;;;8.92;100.00;100207.16;106175;1258;72365;-52
2024/04/05 06:46:26;;;;;;;0.30;0.20;;;;;;;8.97;100.00;100207.73;106261;1254;60630;-52
2024/04/05 06:48:53;;;;;;;0.40;0.30;;;;;;;9.00;100.00;100205.66;106237;1270;61409;-54
2024/04/05 06:51:20;;;;;;;0.50;0.20;;;;;;;9.03;100.00;100204.64;106351;1253;74430;-55
2024/04/05 06:53:48;;;;;;;0.30;0.30;;;;;;;9.06;100.00;100207.41;106167;1254;66817;-52
2024/04/05 06:56:15;;;;;;;0.40;0.30;;;;;;;9.09;100.00;100209.48;106250;1253;72588;-57
2024/04/05 06:58:42;;;;;;;1.00;0.40;;;;;;;9.11;100.00;100210.97;106309;1254;60533;-52
2024/04/05 07:01:09;;;;;;;0.30;0.20;;;;;;;9.15;100.00;100211.23;107942;1253;60413;-53
2024/04/05 07:03:36;;;;;;;0.40;0.30;;;;;;;9.21;100.00;100210.28;106080;1256;74588;-55
2024/04/05 07:06:03;;;;;;;0.40;0.20;;;;;;;9.28;100.00;100209.15;106068;1253;67389;-52
2024/04/05 07:08:31;;;;;;;0.30;0.30;;;;;;;9.35;100.00;100212.65;106247;1254;72000;-54
2024/04/05 07:10:57;;;;;;;0.40;0.20;;;;;;;9.43;100.00;100214.50;106597;1256;61092;-53
2024/04/05 07:13:25;;;;;;;0.60;0.20;;;;;;;9.51;100.00;100210.98;106547;1253;60429;-55
2024/04/05 07:15:52;;;;;;;0.70;0.20;;;;;;;9.60;100.00;100214.95;106256;1254;74218;-54
2024/04/05 07:18:22;;;;;;;3.20;0.30;;;;;;;9.68;100.00;100214.84;106541;1254;66978;-53
2024/04/05 07:20:49;;;;;;;0.40;0.30;;;;;;;9.78;100.00;100215.20;106096;1260;72720;-53
2024/04/05 07:23:15;;;;;;;0.40;0.30;;;;;;;9.88;100.00;100207.81;106068;1254;60473;-52
2024/04/05 07:25:42;;;;;;;0.40;0.20;;;;;;;9.98;100.00;100210.10;106060;1260;60498;-53
2024/04/05 07:28:09;;;;;;;0.40;0.30;;;;;;;10.09;100.00;100210.41;106147;1256;73243;-53
2024/04/05 07:30:36;;;;;;;1.50;0.20;;;;;;;10.21;100.00;100210.30;106459;1254;67184;-53
2024/04/05 07:33:04;;;;;;;0.40;0.20;;;;;;;10.32;100.00;100209.52;106428;1255;72522;-52
2024/04/05 07:35:32;;;;;;;0.40;0.30;;;;;;;10.42;100.00;100207.29;106735;1253;60531;-52
2024/04/05 07:37:59;;;;;;;1.00;0.20;;;;;;;10.52;100.00;100210.67;106649;1253;60512;-56
2024/04/05 07:40:26;;;;;;;0.30;0.20;;;;;;;10.60;100.00;100207.27;106091;1253;72609;-52
2024/04/05 07:42:54;;;;;;;1.40;0.30;;;;;;;10.68;100.00;100206.25;106131;1253;65123;-54
2024/04/05 07:45:24;;;;;;;0.30;0.20;;;;;;;10.75;100.00;100207.40;106328;1253;72601;-54
2024/04/05 07:47:51;;;;;;;0.40;0.30;;;;;;;10.81;100.00;100208.05;106528;1254;60455;-56
2024/04/05 07:50:18;;;;;;;3.20;0.30;;;;;;;10.86;100.00;100198.86;106113;1256;60569;-54
2024/04/05 07:52:46;;;;;;;0.20;0.20;;;;;;;10.90;100.00;100200.84;106903;1256;73745;-53
2024/04/05 07:55:13;;;;;;;0.30;0.20;;;;;;;10.96;100.00;100202.17;109141;1253;65218;-57
2024/04/05 07:57:40;;;;;;;0.30;0.20;;;;;;;11.04;100.00;100206.34;109110;1252;72360;-56
2024/04/05 08:00:13;;;;;;;0.20;0.20;;;;;;;11.10;100.00;100208.06;109206;1253;59125;-55
2024/04/05 08:02:46;;;;;;;0.40;0.20;;;;;;;11.14;100.00;100213.61;109211;1252;58774;-54
2024/04/05 08:05:13;;;;;;;0.50;0.20;;;;;;;11.19;100.00;100214.64;109104;1253;72419;-54
2024/04/05 08:07:39;;;;;;;0.30;0.30;;;;;;;11.23;100.00;100216.61;109123;1253;66791;-58
2024/04/05 08:10:09;;;;;;;0.40;0.30;;;;;;;11.27;100.00;100217.70;106612;1254;72654;-53
2024/04/05 08:12:37;;;;;;;0.40;0.30;;;;;;;11.31;100.00;100218.23;106101;1254;61310;-54
2024/04/05 08:15:07;;;;;;;0.30;0.20;;;;;;;11.36;100.00;100216.75;109197;1252;60202;-53
2024/04/05 08:17:35;;;;;;;0.40;0.30;;;;;;;11.43;100.00;100213.04;109175;1253;74279;-53
2024/04/05 08:20:03;;;;;;;0.30;0.20;;;;;;;11.53;100.00;100210.64;109233;1253;67091;-52
2024/04/05 08:22:29;;;;;;;0.30;0.20;;;;;;;11.64;100.00;100211.04;109100;1252;74233;-52
2024/04/05 08:24:59;;;;;;;0.60;0.30;;;;;;;11.75;100.00;100208.36;109209;1252;60006;-53
2024/04/05 08:27:31;;;;;;;0.70;0.20;;;;;;;11.82;100.00;100206.64;109216;1253;59905;-51
2024/04/05 08:29:58;;;;;;;0.40;0.30;;;;;;;11.84;100.00;100199.71;109279;1255;73791;-53
2024/04/05 08:32:25;;;;;;;0.20;0.20;;;;;;;11.85;100.00;100195.52;109210;1252;68488;-54
2024/04/05 08:34:51;;;;;;;0.30;0.20;;;;;;;11.87;100.00;100192.01;109180;1253;72545;-55
2024/04/05 08:37:18;;;;;;;0.30;0.20;;;;;;;11.92;100.00;100193.60;107964;1253;61349;-52
2024/04/05 08:39:45;;;;;;;0.30;0.20;;;;;;;11.98;100.00;100192.02;106157;1256;61342;-53
2024/04/05 08:42:13;;;;;;;0.30;0.20;;;;;;;12.04;100.00;100190.84;106113;1256;74635;-54
2024/04/05 08:44:43;;;;;;;0.20;0.20;;;;;;;12.07;100.00;100189.28;106141;1257;67788;-56
2024/04/05 08:47:10;;;;;;;0.20;0.20;;;;;;;12.11;100.00;100184.39;106482;1256;72348;-56
2024/04/05 08:49:37;;;;;;;0.20;0.20;;;;;;;12.18;100.00;100180.13;106679;1256;61186;-54
2024/04/05 08:52:04;;;;;;;1.10;0.30;;;;;;;12.27;100.00;100182.40;106158;1257;59948;-54
2024/04/05 08:54:31;;;;;;;0.20;0.20;;;;;;;12.38;100.00;100184.36;106592;1254;74575;-58
2024/04/05 08:56:59;;;;;;;0.90;0.30;;;;;;;12.50;100.00;100185.55;106156;1256;65086;-53
2024/04/05 08:59:29;;;;;;;0.50;0.30;;;;;;;12.61;100.00;100184.27;107115;1256;71670;-51
2024/04/05 09:02:02;;;;;;;4.50;0.20;;;;;;;12.67;100.00;100179.13;106258;1256;61625;-53
2024/04/05 09:04:30;;;;;;;0.40;0.30;;;;;;;12.72;100.00;100176.69;106126;1257;61337;-54
2024/04/05 09:06:57;;;;;;;0.40;0.30;;;;;;;12.78;100.00;100175.84;106166;1253;75300;-55
2024/04/05 09:09:27;;;;;;;0.40;0.30;;;;;;;12.84;100.00;100171.80;106272;1256;66540;-51
2024/04/05 09:12:06;;;;;;;0.30;0.20;;;;;;;12.88;100.00;100170.67;107823;1253;73232;-59
2024/04/05 09:14:37;;;;;;;0.40;0.30;;;;;;;12.90;100.00;100171.83;106238;1253;61224;-53
2024/04/05 09:17:14;;;;;;;4.40;0.30;;;;;;;12.95;100.00;100174.08;106127;1257;60916;-53
2024/04/05 09:19:41;;;;;;;0.30;0.20;;;;;;;13.03;100.00;100169.34;106153;1259;75745;-54
2024/04/05 09:22:08;;;;;;;0.40;0.30;;;;;;;13.10;100.00;100173.13;106098;1253;66984;-53
2024/04/05 09:24:35;;;;;;;0.20;0.20;;;;;;;13.14;100.00;100172.05;106105;1256;72578;-53
2024/04/05 09:27:06;;;;;;;0.50;0.20;;;;;;;13.18;100.00;100170.77;105958;1255;61558;-55
2024/04/05 09:29:33;;;;;;;0.30;0.30;;;;;;;13.23;100.00;100166.17;106238;1253;61248;-54
2024/04/05 09:32:00;;;;;;;1.60;0.30;;;;;;;13.26;100.00;100165.28;106003;1252;73501;-54
2024/04/05 09:34:28;;;;;;;0.30;0.20;;;;;;;13.31;100.00;100158.72;106116;1258;66911;-54
2024/04/05 09:36:58;;;;;;;0.50;0.30;;;;;;;13.37;100.00;100156.42;106157;1257;72653;-53
2024/04/05 09:39:25;;;;;;;0.40;0.20;;;;;;;13.42;100.00;100154.00;105964;1257;61640;-55
2024/04/05 09:41:56;;;;;;;0.40;0.30;;;;;;;13.47;100.00;100153.35;106029;1258;62138;-57
2024/04/05 09:44:23;;;;;;;0.30;0.30;;;;;;;13.54;100.00;100150.59;106251;1252;74948;-53
2024/04/05 09:46:52;;;;;;;0.50;0.30;;;;;;;13.60;100.00;100144.72;106087;1259;66261;-53
2024/04/05 09:49:20;;;;;;;1.00;0.30;;;;;;;13.66;100.00;100143.66;106558;1256;72406;-57
2024/04/05 09:51:49;;;;;;;0.80;0.30;;;;;;;13.72;100.00;100143.14;106093;1256;61394;-56
2024/04/05 09:54:17;;;;;;;1.20;0.30;;;;;;;13.79;100.00;100143.12;105920;1272;61302;-55
2024/04/05 09:56:44;;;;;;;3.80;0.30;;;;;;;13.87;100.00;100141.24;106360;1252;75061;-53
2024/04/05 09:59:20;;;;;;;0.70;0.30;;;;;;;13.93;100.00;100138.75;106761;1256;65270;-54
2024/04/05 10:01:47;;;;;;;0.30;0.30;;;;;;;13.97;100.00;100138.48;106398;1253;73158;-54
2024/04/05 10:04:13;;;;;;;0.90;0.30;;;;;;;14.01;100.00;100142.80;105943;1260;61357;-54
2024/04/05 10:06:42;;;;;;;0.30;0.30;;;;;;;14.06;100.00;100140.16;106249;1256;61359;-53
2024/04/05 10:09:21;;;;;;;1.40;0.30;;;;;;;14.12;100.00;100147.21;106643;1256;75431;-55
2024/04/05 10:11:50;;;;;;;0.40;0.30;;;;;;;14.18;100.00;100147.76;106169;1252;66307;-55
2024/04/05 10:14:27;;;;;;;1.70;0.30;;;;;;;14.23;100.00;100141.88;108406;1253;72456;-56
2024/04/05 10:17:09;;;;;;;0.40;0.30;;;;;;;14.27;100.00;100145.98;106612;1253;61986;-54
2024/04/05 10:19:37;;;;;;;0.40;0.20;;;;;;;14.27;100.00;100140.39;106474;1256;62200;-54
2024/04/05 10:22:14;;;;;;;0.50;0.40;;;;;;;14.30;100.00;100143.12;106250;1256;73542;-53
2024/04/05 10:24:40;;;;;;;0.80;0.40;;;;;;;14.35;100.00;100141.58;106791;1257;65028;-53
2024/04/05 10:27:10;;;;;;;0.30;0.30;;;;;;;14.38;100.00;100142.81;106304;1256;72685;-54
2024/04/05 10:29:37;;;;;;;1.70;0.30;;;;;;;14.45;100.00;100139.21;106874;1256;61225;-58
2024/04/05 10:32:07;;;;;;;0.20;0.20;;;;;;;14.54;100.00;100134.71;106342;1254;61133;-55
2024/04/05 10:34:33;;;;;;;0.30;0.30;;;;;;;14.61;100.00;100132.67;106265;1254;75452;-55
2024/04/05 10:37:03;;;;;;;0.50;0.30;;;;;;;14.68;100.00;100138.40;106104;1252;67343;-55
2024/04/05 10:39:30;;;;;;;0.20;0.20;;;;;;;14.76;100.00;100139.55;106334;1253;72671;-57
2024/04/05 10:41:57;;;;;;;0.50;0.30;;;;;;;14.82;100.00;100139.18;106375;1257;62633;-55
2024/04/05 10:44:24;;;;;;;0.60;0.20;;;;;;;14.88;100.00;100137.05;106063;1256;61027;-51
2024/04/05 10:46:50;;;;;;;0.30;0.30;;;;;;;14.91;100.00;100135.94;106101;1256;74557;-53
2024/04/05 10:49:19;;;;;;;0.30;0.20;;;;;;;14.96;100.00;100130.41;107773;1253;66984;-53
2024/04/05 10:51:46;;;;;;;0.40;0.30;;;;;;;15.02;100.00;100131.81;106202;1258;72954;-54
2024/04/05 10:54:14;;;;;;;0.70;0.20;;;;;;;15.09;100.00;100122.89;106255;1256;61392;-53
2024/04/05 10:56:42;;;;;;;0.50;0.30;;;;;;;15.16;100.00;100126.10;109150;1256;58973;-56
2024/04/05 10:59:13;;;;;;;0.70;0.20;;;;;;;15.25;100.00;100122.84;109161;1252;74483;-53
2024/04/05 11:01:40;;;;;;;0.30;0.20;;;;;;;15.32;100.00;100120.91;109273;1252;66073;-55
2024/04/05 11:04:10;;;;;;;0.70;0.20;;;;;;;15.38;100.00;100117.50;109125;1252;72288;-53
2024/04/05 11:06:37;;;;;;;0.30;0.20;;;;;;;15.42;100.00;100117.98;109120;1253;59191;-54
2024/04/05 11:09:06;;;;;;;0.50;0.30;;;;;;;15.45;100.00;100111.63;109163;1252;58997;-54
2024/04/05 11:11:33;;;;;;;1.60;0.20;;;;;;;15.49;100.00;100108.45;109159;1252;74530;-55
2024/04/05 11:14:05;;;;;;;0.60;0.30;;;;;;;15.54;100.00;100106.73;108733;1252;66106;-55
2024/04/05 11:16:33;;;;;;;0.60;0.40;;;;;;;15.59;100.00;100104.64;109141;1252;73566;-55
2024/04/05 11:19:00;;;;;;;0.50;0.30;;;;;;;15.64;100.00;100100.31;106440;1256;61375;-57